This is the latest recevied weather packets stored in our database for station/object F8BMG-Wx. If no packets are shown the sender has not sent any weather packets the latest 1 day(s).
| Time | Temp. | Humidity | Pressure | Rain* | Wind** | Luminosity | Snow |
|---|---|---|---|---|---|---|---|
| 1778094971 | 12.78° C | 99% | 1013.7 hPa | 0 mm | - | - | - |
| 1778094364 | 12.78° C | 99% | 1013.5 hPa | 0 mm | - | - | - |
| 1778093757 | 13.33° C | 99% | 1013.4 hPa | 0 mm | - | - | - |
| 1778089499 | 14.44° C | 99% | 1012.7 hPa | 0 mm | - | - | - |
| 1778086764 | 15° C | 99% | 1012.5 hPa | 0 mm | - | - | - |
| 1778086460 | 15.56° C | 99% | 1012.4 hPa | 0 mm | - | - | - |
| 1778085851 | 16.11° C | 99% | 1012.3 hPa | 0 mm | - | - | - |
| 1778084636 | 16.11° C | 99% | 1012.2 hPa | 0 mm | - | - | - |
| 1778081898 | 15.56° C | 99% | 1012.1 hPa | 0 mm | - | - | - |
| 1778081594 | 15° C | 99% | 1012.3 hPa | 0 mm | - | - | - |
| 1778080987 | 15° C | 99% | 1012.4 hPa | 0 mm | - | - | - |
| 1778079467 | 15.56° C | 99% | 1012.3 hPa | 0 mm | - | - | - |
| 1778078866 | 16.11° C | 99% | 1012.2 hPa | 0 mm | - | - | - |
| 1778078554 | 16.11° C | 99% | 1012.2 hPa | 0 mm | - | - | - |
| 1778077339 | 16.67° C | 99% | 1012.1 hPa | 0 mm | - | - | - |
| 1778076731 | 16.11° C | 99% | 1012 hPa | 0 mm | - | - | - |
| 1778076426 | 16.11° C | 99% | 1012.1 hPa | 0 mm | - | - | - |
| 1778074298 | 16.11° C | 99% | 1012 hPa | 0 mm | - | - | - |
| 1778073691 | 15° C | 99% | 1012.1 hPa | 0 mm | - | - | - |
| 1778072778 | 14.44° C | 99% | 1012.3 hPa | 0 mm | - | - | - |
| 1778071867 | 16.11° C | 99% | 1012.1 hPa | 0 mm | - | - | - |
| 1778070650 | 16.11° C | 99% | 1011.8 hPa | 0 mm | - | - | - |
| 1778070346 | 16.67° C | 99% | 1011.9 hPa | 0 mm | - | - | - |
| 1778069745 | 16.11° C | 99% | 1011.9 hPa | 0 mm | - | - | - |
| 1778069433 | 16.11° C | 99% | 1012 hPa | 0 mm | - | - | - |
* Rain latest hour (hover to see other rain measurements)
** Current wind speed in m/s (hover to see current wind gust speed)